createdAt,value
2022-07-28T00:00:28.550Z,754.52632
2022-07-28T00:05:30.065Z,704.49383
2022-07-28T00:10:32.793Z,754.52632
2022-07-28T00:15:34.278Z,723.74684
2022-07-28T00:20:35.718Z,744
2022-07-28T00:25:37.200Z,811.60563
2022-07-28T00:30:38.783Z,799.55556
2022-07-28T00:35:40.450Z,787.83562
2022-07-28T00:40:50.166Z,776.43243
2022-07-28T00:45:51.752Z,754.52632
2022-07-28T00:50:53.565Z,704.49383
2022-07-28T00:56:06.353Z,733.74359
2022-07-28T01:01:08.424Z,776.43243
2022-07-28T01:06:09.856Z,776.43243
2022-07-28T01:11:11.889Z,765.33333
2022-07-28T01:16:13.349Z,744
2022-07-28T01:21:14.841Z,776.43243
2022-07-28T01:26:16.291Z,744
2022-07-28T01:31:17.887Z,765.33333
2022-07-28T01:36:19.390Z,776.43243
2022-07-28T01:41:21.097Z,787.83562
2022-07-28T01:46:22.836Z,787.83562
2022-07-28T01:51:24.322Z,787.83562
2022-07-28T01:56:25.929Z,776.43243
2022-07-28T02:01:27.479Z,765.33333
2022-07-28T02:06:29.152Z,765.33333
2022-07-28T02:11:32.204Z,754.52632
2022-07-28T02:16:33.859Z,704.49383
2022-07-28T02:21:36.330Z,754.52632
2022-07-28T02:26:38.031Z,733.74359
2022-07-28T02:31:40.499Z,714
2022-07-28T02:36:43.581Z,695.21951
2022-07-28T02:41:47.948Z,686.16867
2022-07-28T02:46:49.488Z,668.70588
2022-07-28T02:51:51.135Z,668.70588
2022-07-28T02:56:53.446Z,668.70588
2022-07-28T03:01:55.914Z,660.27907
2022-07-28T03:06:57.411Z,652.04598
2022-07-28T03:12:00.922Z,613.56522
2022-07-28T03:17:02.507Z,636.13483
2022-07-28T03:22:04.442Z,628.44444
2022-07-28T03:27:06.546Z,628.44444
2022-07-28T03:32:08.019Z,620.92308
2022-07-28T03:37:10.033Z,628.44444
2022-07-28T03:42:12.225Z,606.36559
2022-07-28T03:47:14.069Z,566.22222
2022-07-28T03:52:15.515Z,542.05825
2022-07-28T03:57:17.214Z,572.57143
2022-07-28T04:02:18.724Z,572.57143
2022-07-28T04:07:20.590Z,560
2022-07-28T04:12:22.489Z,572.57143
2022-07-28T04:17:24.827Z,536.30769
2022-07-28T04:22:26.669Z,536.30769
2022-07-28T04:27:28.263Z,530.66667
2022-07-28T04:32:29.730Z,417.84615
2022-07-28T04:37:32.383Z,498.95495
2022-07-28T04:42:34.523Z,498.95495
2022-07-28T04:47:36.282Z,519.70093
2022-07-28T04:52:38.013Z,514.37037
2022-07-28T04:57:39.739Z,498.95495
2022-07-28T05:02:41.182Z,484.35088
2022-07-28T05:07:42.622Z,479.65217
2022-07-28T05:12:44.308Z,475.03448
2022-07-28T05:17:45.917Z,475.03448
2022-07-28T05:22:47.505Z,453.09091
2022-07-28T05:27:48.955Z,444.81301
2022-07-28T05:32:50.726Z,444.81301
2022-07-28T05:37:52.710Z,432.88889
2022-07-28T05:42:54.553Z,436.8
2022-07-28T05:47:56.008Z,432.88889
2022-07-28T05:52:57.486Z,453.09091
2022-07-28T05:57:58.951Z,514.37037
2022-07-28T06:03:00.626Z,519.70093
2022-07-28T06:08:02.147Z,542.05825
2022-07-28T06:13:03.840Z,547.92157
2022-07-28T06:18:05.388Z,514.37037
2022-07-28T06:23:06.856Z,519.70093
2022-07-28T06:28:08.538Z,509.13761
2022-07-28T06:33:12.774Z,509.13761
2022-07-28T06:38:18.543Z,530.66667
2022-07-28T06:43:21.701Z,494
2022-07-28T06:48:25.821Z,489.13274
2022-07-28T06:53:33.459Z,498.95495
2022-07-28T06:58:36.011Z,509.13761
2022-07-28T07:03:37.440Z,542.05825
2022-07-28T07:08:39.076Z,530.66667
2022-07-28T07:13:40.989Z,519.70093
2022-07-28T07:18:42.564Z,536.30769
2022-07-28T07:23:44.140Z,530.66667
2022-07-28T07:28:46.771Z,547.92157
2022-07-28T07:33:48.359Z,613.56522
2022-07-28T07:38:49.935Z,620.92308
2022-07-28T07:43:51.848Z,628.44444
2022-07-28T07:48:53.326Z,613.56522
2022-07-28T07:53:54.802Z,592.42105
2022-07-28T07:58:57.253Z,566.22222
2022-07-28T08:03:58.933Z,585.66667
2022-07-28T08:09:00.397Z,579.05155
2022-07-28T08:14:02.663Z,620.92308
2022-07-28T08:19:04.129Z,636.13483
2022-07-28T08:24:07.605Z,668.70588
2022-07-28T08:29:09.041Z,677.33333
2022-07-28T08:34:29.866Z,660.27907
2022-07-28T08:39:35.018Z,723.74684
2022-07-28T08:44:36.689Z,652.04598
2022-07-28T08:49:39.363Z,644
2022-07-28T08:54:42.551Z,660.27907
2022-07-28T08:59:44.239Z,686.16867
2022-07-28T09:04:45.784Z,723.74684
2022-07-28T09:09:47.243Z,754.52632
2022-07-28T09:14:49.034Z,714
2022-07-28T09:19:50.837Z,677.33333
2022-07-28T09:24:52.514Z,677.33333
2022-07-28T09:29:54.027Z,668.70588
2022-07-28T09:34:55.598Z,660.27907
2022-07-28T09:39:57.017Z,668.70588
2022-07-28T09:45:21.262Z,695.21951
2022-07-28T09:50:24.394Z,677.33333
2022-07-28T09:55:25.837Z,723.74684
2022-07-28T10:00:27.903Z,744
2022-07-28T10:05:30.169Z,733.74359
2022-07-28T10:10:32.179Z,660.27907
2022-07-28T10:15:34.138Z,754.52632
2022-07-28T10:20:35.666Z,799.55556
2022-07-28T10:25:37.361Z,1044
2022-07-28T10:30:39.271Z,953.83607
2022-07-28T10:35:52.519Z,1084.74074
2022-07-28T10:40:56.998Z,1024.70175
2022-07-28T10:46:05.594Z,1024.70175
2022-07-28T10:51:08.534Z,1084.74074
2022-07-28T10:56:10.214Z,1128.61538
2022-07-28T11:01:26.663Z,1024.70175
2022-07-28T11:06:47.811Z,1084.74074
2022-07-28T11:11:49.245Z,1106.26415
2022-07-28T11:16:51.591Z,1064
2022-07-28T11:21:53.060Z,921.77778
2022-07-28T11:26:54.551Z,824
2022-07-28T11:31:56.219Z,877.33333
2022-07-28T11:36:57.861Z,921.77778
2022-07-28T11:41:59.369Z,906.5
2022-07-28T11:47:01.889Z,953.83607
2022-07-28T11:52:03.351Z,970.66667
2022-07-28T11:57:05.273Z,921.77778
2022-07-28T12:02:06.903Z,906.5
2022-07-28T12:07:08.378Z,891.69231
2022-07-28T12:12:10.945Z,937.54839
2022-07-28T12:17:13.162Z,937.54839
2022-07-28T12:22:16.212Z,906.5
2022-07-28T12:27:17.678Z,863.40299
2022-07-28T12:32:19.820Z,970.66667
2022-07-28T12:37:21.369Z,906.5
2022-07-28T12:42:22.834Z,891.69231
2022-07-28T12:47:24.584Z,877.33333
2022-07-28T12:52:26.233Z,937.54839
2022-07-28T12:57:27.904Z,906.5
2022-07-28T13:02:29.650Z,921.77778
2022-07-28T13:07:31.534Z,937.54839
2022-07-28T13:12:33.013Z,921.77778
2022-07-28T13:17:35.199Z,877.33333
2022-07-28T13:22:36.761Z,921.77778
2022-07-28T13:27:38.252Z,937.54839
2022-07-28T13:32:40.096Z,891.69231
2022-07-28T13:37:43.450Z,863.40299
2022-07-28T13:42:53.176Z,824
2022-07-28T13:47:58.889Z,863.40299
2022-07-28T13:53:00.337Z,863.40299
2022-07-28T13:58:08.247Z,953.83607
2022-07-28T14:03:10.661Z,921.77778
2022-07-28T14:08:13.263Z,937.54839
2022-07-28T14:13:14.690Z,891.69231
2022-07-28T14:18:16.714Z,953.83607
2022-07-28T14:23:18.242Z,921.77778
2022-07-28T14:28:19.781Z,953.83607
2022-07-28T14:33:21.640Z,921.77778
2022-07-28T14:38:52.506Z,921.77778
2022-07-28T14:43:55.368Z,877.33333
2022-07-28T14:48:57.467Z,836.75362
2022-07-28T14:53:58.954Z,970.66667
2022-07-28T14:59:00.438Z,891.69231
2022-07-28T15:04:02.221Z,776.43243
2022-07-28T15:09:03.886Z,836.75362
2022-07-28T15:14:05.466Z,765.33333
2022-07-28T15:19:07.266Z,787.83562
2022-07-28T15:24:08.804Z,787.83562
2022-07-28T15:29:10.278Z,836.75362
2022-07-28T15:34:13.277Z,877.33333
2022-07-28T15:39:15.035Z,836.75362
2022-07-28T15:44:17.122Z,765.33333
2022-07-28T15:49:27.592Z,1044
2022-07-28T15:54:29.078Z,953.83607
2022-07-28T15:59:49.958Z,921.77778
2022-07-28T16:04:54.364Z,1410.66667
2022-07-28T16:09:56.328Z,1446.43902
2022-07-28T16:14:57.794Z,1344
2022-07-28T16:20:02.490Z,1201.14286
2022-07-28T16:25:04.355Z,1151.84314
2022-07-28T16:30:05.973Z,1084.74074
2022-07-28T16:35:07.437Z,970.66667
2022-07-28T16:40:08.891Z,1227.33333
2022-07-28T16:45:10.434Z,1064
2022-07-28T16:50:12.315Z,744
2022-07-28T16:55:16.125Z,906.5
2022-07-28T17:00:20.749Z,733.74359
2022-07-28T17:05:22.397Z,776.43243
2022-07-28T17:10:27.174Z,765.33333
2022-07-28T17:15:29.292Z,765.33333
2022-07-28T17:20:31.072Z,714
2022-07-28T17:25:59.215Z,765.33333
2022-07-28T17:31:22.802Z,733.74359
2022-07-28T17:36:24.623Z,677.33333
2022-07-28T17:41:26.064Z,799.55556
2022-07-28T17:46:27.638Z,660.27907
2022-07-28T17:51:29.550Z,776.43243
2022-07-28T17:56:31.229Z,765.33333
2022-07-28T18:01:32.836Z,765.33333
2022-07-28T18:06:35.247Z,754.52632
2022-07-28T18:11:55.279Z,686.16867
2022-07-28T18:16:57.933Z,668.70588
2022-07-28T18:21:59.709Z,579.05155
2022-07-28T18:27:01.293Z,547.92157
2022-07-28T18:32:02.724Z,498.95495
2022-07-28T18:37:04.444Z,579.05155
2022-07-28T18:42:06.083Z,572.57143
2022-07-28T18:47:07.524Z,572.57143
2022-07-28T18:52:09.449Z,579.05155
2022-07-28T18:57:10.935Z,566.22222
2022-07-28T19:02:12.600Z,530.66667
2022-07-28T19:07:14.416Z,519.70093
2022-07-28T19:12:15.975Z,519.70093
2022-07-28T19:17:17.406Z,547.92157
2022-07-28T19:22:19.115Z,553.90099
2022-07-28T19:27:20.557Z,530.66667
2022-07-28T19:32:22.006Z,542.05825
2022-07-28T19:37:23.434Z,560
2022-07-28T19:42:24.987Z,553.90099
2022-07-28T19:47:26.551Z,536.30769
2022-07-28T19:52:28.255Z,553.90099
2022-07-28T19:57:29.726Z,542.05825
2022-07-28T20:02:31.207Z,542.05825
2022-07-28T20:07:32.820Z,547.92157
2022-07-28T20:12:36.595Z,525.13208
2022-07-28T20:17:39.739Z,498.95495
2022-07-28T20:22:41.891Z,509.13761
2022-07-28T20:27:43.414Z,519.70093
2022-07-28T20:32:44.873Z,504
2022-07-28T20:37:46.511Z,509.13761
2022-07-28T20:42:52.849Z,514.37037
2022-07-28T20:47:54.636Z,542.05825
2022-07-28T20:52:56.491Z,514.37037
2022-07-28T20:57:58.068Z,519.70093
2022-07-28T21:02:59.662Z,519.70093
2022-07-28T21:08:05.696Z,536.30769
2022-07-28T21:13:10.534Z,525.13208
2022-07-28T21:18:12.307Z,530.66667
2022-07-28T21:23:17.561Z,519.70093
2022-07-28T21:28:19.141Z,536.30769
2022-07-28T21:33:22.853Z,525.13208
2022-07-28T21:38:24.710Z,519.70093
2022-07-28T21:43:26.358Z,525.13208
2022-07-28T21:48:27.843Z,536.30769
2022-07-28T21:53:29.833Z,519.70093
2022-07-28T21:58:31.320Z,494
2022-07-28T22:03:33.381Z,470.49573
2022-07-28T22:08:35.058Z,504
2022-07-28T22:13:36.641Z,579.05155
2022-07-28T22:18:38.196Z,636.13483
2022-07-28T22:23:40.091Z,677.33333
2022-07-28T22:28:41.850Z,714
2022-07-28T22:33:43.534Z,776.43243
2022-07-28T22:38:45.445Z,824
2022-07-28T22:43:47.408Z,824
2022-07-28T22:48:49.043Z,836.75362
2022-07-28T22:53:50.989Z,787.83562
2022-07-28T22:58:52.553Z,824
2022-07-28T23:03:54.199Z,799.55556
2022-07-28T23:08:55.991Z,811.60563
2022-07-28T23:13:57.933Z,787.83562
2022-07-28T23:18:59.755Z,787.83562
2022-07-28T23:24:01.685Z,723.74684
2022-07-28T23:29:03.472Z,714
2022-07-28T23:34:04.970Z,695.21951
2022-07-28T23:39:06.838Z,686.16867
2022-07-28T23:44:08.909Z,714
2022-07-28T23:49:10.588Z,765.33333
2022-07-28T23:54:14.275Z,776.43243
2022-07-28T23:59:16.649Z,811.60563
